createdAt,value
2019-02-18T00:00:30.518Z,0
2019-02-18T00:01:29.027Z,0
2019-02-18T00:02:27.617Z,0
2019-02-18T00:03:26.167Z,0
2019-02-18T00:04:24.699Z,0
2019-02-18T00:05:23.259Z,0
2019-02-18T00:06:22.094Z,0
2019-02-18T00:07:20.680Z,0
2019-02-18T00:08:19.183Z,0
2019-02-18T00:09:17.753Z,0
2019-02-18T00:10:16.444Z,0
2019-02-18T00:11:15.010Z,0
2019-02-18T00:12:13.578Z,0
2019-02-18T00:13:12.129Z,0
2019-02-18T00:14:10.649Z,0
2019-02-18T00:15:09.194Z,0
2019-02-18T00:16:07.741Z,0
2019-02-18T00:17:06.268Z,0
2019-02-18T00:18:04.822Z,0
2019-02-18T00:19:03.343Z,0
2019-02-18T00:20:01.911Z,0
2019-02-18T00:21:00.581Z,0
2019-02-18T00:21:59.154Z,0
2019-02-18T00:22:57.798Z,0
2019-02-18T00:23:56.402Z,0
2019-02-18T00:24:54.955Z,0
2019-02-18T00:25:53.557Z,0
2019-02-18T00:26:52.361Z,0
2019-02-18T00:27:50.882Z,0
2019-02-18T00:28:49.446Z,0
2019-02-18T00:29:48.004Z,0
2019-02-18T00:30:46.566Z,0
2019-02-18T00:31:45.125Z,0
2019-02-18T00:32:43.684Z,0
2019-02-18T00:33:42.527Z,0
2019-02-18T00:34:41.065Z,0
2019-02-18T00:35:39.650Z,0
2019-02-18T00:36:38.477Z,0
2019-02-18T00:37:36.994Z,0
2019-02-18T00:38:35.533Z,0
2019-02-18T00:39:34.163Z,0
2019-02-18T00:40:32.698Z,0
2019-02-18T00:41:31.225Z,0
2019-02-18T00:42:29.793Z,0
2019-02-18T00:43:28.508Z,0
2019-02-18T00:44:27.041Z,0
2019-02-18T00:45:25.601Z,0
2019-02-18T00:46:24.345Z,0
2019-02-18T00:47:22.896Z,0
2019-02-18T00:48:21.501Z,0
2019-02-18T00:49:20.241Z,0
2019-02-18T00:50:19.738Z,0
2019-02-18T00:51:18.341Z,0
2019-02-18T00:52:16.911Z,0
2019-02-18T00:53:15.430Z,0
2019-02-18T00:54:13.998Z,0
2019-02-18T00:55:12.717Z,0
2019-02-18T00:56:11.243Z,0
2019-02-18T00:57:09.788Z,0
2019-02-18T00:58:08.410Z,0
2019-02-18T00:59:07.000Z,0
2019-02-18T01:00:05.595Z,0
2019-02-18T01:01:04.357Z,0
2019-02-18T01:02:02.927Z,0
2019-02-18T01:03:01.476Z,0
2019-02-18T01:04:00.165Z,0
2019-02-18T01:04:58.671Z,0
2019-02-18T01:05:57.232Z,0
2019-02-18T01:06:55.810Z,0
2019-02-18T01:07:54.477Z,0
2019-02-18T01:08:53.036Z,0
2019-02-18T01:09:51.679Z,0
2019-02-18T01:10:50.369Z,0
2019-02-18T01:11:48.933Z,0
2019-02-18T01:12:47.604Z,0
2019-02-18T01:13:46.189Z,0
2019-02-18T01:14:44.748Z,0
2019-02-18T01:15:43.282Z,0
2019-02-18T01:16:41.851Z,0
2019-02-18T01:17:40.411Z,0
2019-02-18T01:18:38.935Z,0
2019-02-18T01:19:37.471Z,0
2019-02-18T01:20:36.421Z,0
2019-02-18T01:21:35.063Z,0
2019-02-18T01:22:33.658Z,0
2019-02-18T01:23:32.283Z,0
2019-02-18T01:24:30.787Z,0
2019-02-18T01:25:29.359Z,0
2019-02-18T01:26:27.955Z,0
2019-02-18T01:27:26.516Z,0
2019-02-18T01:28:25.046Z,0
2019-02-18T01:29:23.572Z,0
2019-02-18T01:30:22.273Z,0
2019-02-18T01:31:20.839Z,0
2019-02-18T01:32:19.634Z,0
2019-02-18T01:33:18.470Z,0
2019-02-18T01:34:17.042Z,0
2019-02-18T01:35:15.607Z,0
2019-02-18T01:36:14.198Z,0
2019-02-18T01:37:12.775Z,0
2019-02-18T01:38:11.325Z,0
2019-02-18T01:39:10.153Z,0
2019-02-18T01:40:08.753Z,0
2019-02-18T01:41:07.461Z,0
2019-02-18T01:42:06.086Z,0
2019-02-18T01:43:04.625Z,0
2019-02-18T01:44:03.375Z,0
2019-02-18T01:45:01.972Z,0
2019-02-18T01:46:00.539Z,0
2019-02-18T01:46:59.110Z,0
2019-02-18T01:47:57.764Z,0
2019-02-18T01:48:56.408Z,0
2019-02-18T01:49:55.257Z,0
2019-02-18T01:50:53.604Z,0
2019-02-18T01:51:52.198Z,0
2019-02-18T01:52:50.738Z,0
2019-02-18T01:53:49.297Z,0
2019-02-18T01:54:47.818Z,0
2019-02-18T01:55:46.367Z,0
2019-02-18T01:56:44.959Z,0
2019-02-18T01:57:43.499Z,0
2019-02-18T01:58:42.190Z,0
2019-02-18T01:59:40.814Z,0
2019-02-18T02:00:39.499Z,0
2019-02-18T02:01:38.071Z,0
2019-02-18T02:02:36.616Z,0
2019-02-18T02:03:35.181Z,0
2019-02-18T02:04:33.773Z,0
2019-02-18T02:05:32.619Z,0
2019-02-18T02:06:31.174Z,0
2019-02-18T02:07:29.732Z,0
2019-02-18T02:08:28.464Z,0
2019-02-18T02:09:27.047Z,0
2019-02-18T02:10:25.592Z,0
2019-02-18T02:11:24.266Z,0
2019-02-18T02:12:22.814Z,0
2019-02-18T02:13:21.409Z,0
2019-02-18T02:14:20.110Z,0
2019-02-18T02:15:18.662Z,0
2019-02-18T02:16:17.193Z,0
2019-02-18T02:17:15.732Z,0
2019-02-18T02:18:14.309Z,0
2019-02-18T02:19:12.823Z,0
2019-02-18T02:20:11.381Z,0
2019-02-18T02:21:09.920Z,0
2019-02-18T02:22:08.497Z,0
2019-02-18T02:23:07.048Z,0
2019-02-18T02:24:05.599Z,0
2019-02-18T02:25:04.337Z,0
2019-02-18T02:26:02.869Z,0
2019-02-18T02:27:01.427Z,0
2019-02-18T02:27:59.978Z,0
2019-02-18T02:28:58.652Z,0
2019-02-18T02:29:57.177Z,0
2019-02-18T02:30:55.898Z,0
2019-02-18T02:31:54.473Z,0
2019-02-18T02:32:53.007Z,0
2019-02-18T02:33:51.573Z,0
2019-02-18T02:34:50.109Z,0
2019-02-18T02:35:48.652Z,0
2019-02-18T02:36:49.214Z,0
2019-02-18T02:37:47.771Z,0
2019-02-18T02:38:46.456Z,0
2019-02-18T02:39:44.986Z,0
2019-02-18T02:40:43.669Z,0
2019-02-18T02:41:42.384Z,0
2019-02-18T02:42:41.094Z,0
2019-02-18T02:43:39.624Z,0
2019-02-18T02:44:38.180Z,0
2019-02-18T02:45:36.714Z,0
2019-02-18T02:46:35.250Z,0
2019-02-18T02:47:33.802Z,0
2019-02-18T02:48:32.623Z,0
2019-02-18T02:49:31.174Z,0
2019-02-18T02:50:29.841Z,0
2019-02-18T02:51:28.467Z,0
2019-02-18T02:52:27.003Z,0
2019-02-18T02:53:25.566Z,0
2019-02-18T02:54:24.170Z,0
2019-02-18T02:55:22.707Z,0
2019-02-18T02:56:21.246Z,0
2019-02-18T02:57:19.877Z,0
2019-02-18T02:58:18.473Z,0
2019-02-18T02:59:17.032Z,0
2019-02-18T03:00:15.594Z,0
2019-02-18T03:01:14.332Z,0
2019-02-18T03:02:12.894Z,0
2019-02-18T03:03:11.461Z,0
2019-02-18T03:04:10.213Z,0
2019-02-18T03:05:08.777Z,0
2019-02-18T03:06:07.312Z,0
2019-02-18T03:07:05.999Z,0
2019-02-18T03:08:04.542Z,0
2019-02-18T03:09:03.134Z,0
2019-02-18T03:10:01.661Z,0
2019-02-18T03:11:00.189Z,0
2019-02-18T03:11:58.756Z,0
2019-02-18T03:12:57.316Z,0
2019-02-18T03:13:56.168Z,0
2019-02-18T03:14:54.699Z,0
2019-02-18T03:15:53.275Z,0
2019-02-18T03:16:51.830Z,0
2019-02-18T03:17:50.408Z,0
2019-02-18T03:18:48.945Z,0
2019-02-18T03:19:47.621Z,0
2019-02-18T03:20:46.165Z,0
2019-02-18T03:21:44.720Z,0
2019-02-18T03:22:43.259Z,0
2019-02-18T03:23:41.802Z,0
2019-02-18T03:24:40.342Z,0
2019-02-18T03:25:39.005Z,0
2019-02-18T03:26:37.564Z,0
2019-02-18T03:27:36.311Z,0
2019-02-18T03:28:34.854Z,0
2019-02-18T03:29:33.393Z,0
2019-02-18T03:30:32.014Z,0
2019-02-18T03:31:30.590Z,0
2019-02-18T03:32:29.135Z,0
2019-02-18T03:33:27.822Z,0
2019-02-18T03:34:26.416Z,0
2019-02-18T03:35:24.930Z,0
2019-02-18T03:36:23.457Z,0
2019-02-18T03:37:22.050Z,0
2019-02-18T03:38:31.072Z,0
2019-02-18T03:39:19.409Z,0
2019-02-18T03:40:18.181Z,0
2019-02-18T03:41:16.737Z,0
2019-02-18T03:42:15.279Z,0
2019-02-18T03:43:14.062Z,0
2019-02-18T03:44:12.638Z,0
2019-02-18T03:45:11.200Z,0
2019-02-18T03:46:09.762Z,0
2019-02-18T03:47:08.315Z,0
2019-02-18T03:48:06.851Z,0
2019-02-18T03:49:05.406Z,0
2019-02-18T03:50:04.157Z,0
2019-02-18T03:51:02.761Z,0
2019-02-18T03:52:01.290Z,0
2019-02-18T03:52:59.979Z,0
2019-02-18T03:53:58.615Z,0
2019-02-18T03:54:57.151Z,0
2019-02-18T03:55:55.741Z,0
2019-02-18T03:56:54.351Z,0
2019-02-18T03:57:52.890Z,0
2019-02-18T03:58:51.423Z,0
2019-02-18T03:59:49.962Z,0
2019-02-18T04:00:48.505Z,0
2019-02-18T04:01:47.074Z,0
2019-02-18T04:02:45.630Z,0
2019-02-18T04:03:44.522Z,0
2019-02-18T04:04:43.093Z,0
2019-02-18T04:05:41.675Z,0
2019-02-18T04:06:40.324Z,0
2019-02-18T04:07:38.870Z,0
2019-02-18T04:08:42.712Z,0
2019-02-18T04:09:35.977Z,0
2019-02-18T04:10:34.588Z,0
2019-02-18T04:11:33.171Z,0
2019-02-18T04:12:31.756Z,0
2019-02-18T04:13:30.361Z,0
2019-02-18T04:14:28.912Z,0
2019-02-18T04:15:27.437Z,0
2019-02-18T04:16:26.196Z,0
2019-02-18T04:17:24.778Z,0
2019-02-18T04:18:23.318Z,0
2019-02-18T04:19:22.050Z,0
2019-02-18T04:20:20.746Z,0
2019-02-18T04:21:19.267Z,0
2019-02-18T04:22:17.821Z,0
2019-02-18T04:23:16.385Z,0
2019-02-18T04:24:14.944Z,0
2019-02-18T04:25:13.465Z,0
2019-02-18T04:26:12.016Z,0
2019-02-18T04:27:10.727Z,0
2019-02-18T04:28:09.273Z,0
2019-02-18T04:29:08.046Z,0
2019-02-18T04:30:06.701Z,0
2019-02-18T04:31:05.228Z,0
2019-02-18T04:32:03.976Z,0
2019-02-18T04:33:02.522Z,0
2019-02-18T04:34:01.081Z,0
2019-02-18T04:34:59.628Z,0
2019-02-18T04:35:58.222Z,0
2019-02-18T04:36:56.787Z,0
2019-02-18T04:37:55.322Z,0
2019-02-18T04:38:54.518Z,0
2019-02-18T04:39:52.818Z,0
2019-02-18T04:40:51.352Z,0
2019-02-18T04:41:50.070Z,0
2019-02-18T04:42:48.602Z,0
2019-02-18T04:43:47.193Z,0
2019-02-18T04:44:45.718Z,0
2019-02-18T04:45:44.327Z,0
2019-02-18T04:46:42.871Z,0
2019-02-18T04:47:41.415Z,0
2019-02-18T04:48:40.022Z,0
2019-02-18T04:49:38.700Z,0
2019-02-18T04:50:37.238Z,0
2019-02-18T04:51:35.853Z,0
2019-02-18T04:52:34.481Z,0
2019-02-18T04:53:33.037Z,0
2019-02-18T04:54:31.810Z,0
2019-02-18T04:55:30.383Z,0
2019-02-18T04:56:29.120Z,0
2019-02-18T04:57:28.029Z,0
2019-02-18T04:58:26.685Z,0
2019-02-18T04:59:25.220Z,0
2019-02-18T05:00:23.851Z,0
2019-02-18T05:01:22.400Z,0
2019-02-18T05:02:21.035Z,0
2019-02-18T05:03:19.559Z,0
2019-02-18T05:04:18.087Z,0
2019-02-18T05:05:16.734Z,0
2019-02-18T05:06:15.270Z,0
2019-02-18T05:07:13.933Z,0
2019-02-18T05:08:12.535Z,0
2019-02-18T05:09:11.096Z,0
2019-02-18T05:10:09.758Z,0
2019-02-18T05:11:08.481Z,0
2019-02-18T05:12:07.014Z,0
2019-02-18T05:13:05.577Z,0
2019-02-18T05:14:04.164Z,0
2019-02-18T05:15:02.659Z,0
2019-02-18T05:16:01.246Z,0
2019-02-18T05:16:59.839Z,0
2019-02-18T05:17:58.394Z,0
2019-02-18T05:18:56.922Z,0
2019-02-18T05:19:55.507Z,0
2019-02-18T05:20:54.320Z,0
2019-02-18T05:21:52.868Z,0
2019-02-18T05:22:51.415Z,0
2019-02-18T05:23:50.304Z,0
2019-02-18T05:24:48.841Z,0
2019-02-18T05:25:47.379Z,0
2019-02-18T05:26:45.970Z,0
2019-02-18T05:27:44.500Z,0
2019-02-18T05:28:43.083Z,0
2019-02-18T05:29:41.634Z,0
2019-02-18T05:30:40.536Z,0
2019-02-18T05:31:39.446Z,0
2019-02-18T05:32:37.972Z,0
2019-02-18T05:33:36.510Z,0
2019-02-18T05:34:35.122Z,0
2019-02-18T05:35:33.688Z,0
2019-02-18T05:36:32.377Z,0
2019-02-18T05:37:30.964Z,0
2019-02-18T05:38:29.568Z,0
2019-02-18T05:39:28.217Z,0
2019-02-18T05:40:27.006Z,0
2019-02-18T05:41:25.636Z,0
2019-02-18T05:42:24.208Z,0
2019-02-18T05:43:22.995Z,0
2019-02-18T05:44:21.497Z,0
2019-02-18T05:45:20.217Z,0
2019-02-18T05:46:18.817Z,0
2019-02-18T05:47:17.351Z,0
2019-02-18T05:48:16.011Z,0
2019-02-18T05:49:14.639Z,0
2019-02-18T05:50:13.163Z,0
2019-02-18T05:51:11.712Z,0
2019-02-18T05:52:10.278Z,0
2019-02-18T05:53:08.898Z,0
2019-02-18T05:54:07.468Z,0
2019-02-18T05:55:06.362Z,0
2019-02-18T05:56:05.039Z,0
2019-02-18T05:57:03.738Z,0
2019-02-18T05:58:02.294Z,0
2019-02-18T05:59:01.001Z,0
2019-02-18T05:59:59.579Z,0
2019-02-18T06:00:58.386Z,4
2019-02-18T06:01:57.036Z,0
2019-02-18T06:02:55.592Z,4
2019-02-18T06:03:54.244Z,4
2019-02-18T06:04:52.762Z,0
2019-02-18T06:05:51.303Z,4
2019-02-18T06:06:49.927Z,4
2019-02-18T06:07:48.455Z,4
2019-02-18T06:08:46.993Z,8
2019-02-18T06:09:45.513Z,8
2019-02-18T06:10:44.075Z,8
2019-02-18T06:11:42.587Z,8
2019-02-18T06:12:41.168Z,12
2019-02-18T06:13:39.705Z,16
2019-02-18T06:14:38.337Z,16
2019-02-18T06:15:36.900Z,20
2019-02-18T06:16:35.434Z,24
2019-02-18T06:17:34.269Z,24
2019-02-18T06:18:32.847Z,32
2019-02-18T06:19:31.368Z,36
2019-02-18T06:22:38.543Z,52
2019-02-18T06:23:36.456Z,60
2019-02-18T06:24:35.011Z,68
2019-02-18T06:25:33.541Z,76
2019-02-18T06:26:32.106Z,80
2019-02-18T06:27:30.645Z,92
2019-02-18T06:28:29.139Z,104
2019-02-18T06:29:27.678Z,112
2019-02-18T06:30:26.186Z,120
2019-02-18T06:31:24.723Z,136
2019-02-18T06:32:23.261Z,144
2019-02-18T06:33:21.801Z,156
2019-02-18T06:34:20.435Z,168
2019-02-18T06:35:18.987Z,180
2019-02-18T06:36:17.582Z,192
2019-02-18T06:37:16.257Z,208
2019-02-18T06:38:14.814Z,224
2019-02-18T06:39:13.392Z,236
2019-02-18T06:40:12.195Z,252
2019-02-18T06:41:10.725Z,264
2019-02-18T06:42:11.210Z,280
2019-02-18T06:43:08.752Z,296
2019-02-18T06:44:07.318Z,308
2019-02-18T06:45:05.835Z,324
2019-02-18T06:46:04.406Z,340
2019-02-18T06:47:02.958Z,356
2019-02-18T06:48:01.526Z,372
2019-02-18T06:49:00.111Z,388
2019-02-18T06:49:58.927Z,404
2019-02-18T06:50:57.976Z,420
2019-02-18T06:51:56.551Z,432
2019-02-18T06:52:55.237Z,448
2019-02-18T06:53:53.946Z,468
2019-02-18T06:54:52.584Z,480
2019-02-18T06:55:51.241Z,500
2019-02-18T06:56:49.894Z,512
2019-02-18T06:57:48.521Z,528
2019-02-18T06:58:47.052Z,544
2019-02-18T06:59:45.564Z,556
2019-02-18T07:00:44.149Z,572
2019-02-18T07:01:42.716Z,588
2019-02-18T07:02:41.234Z,600
2019-02-18T07:03:39.766Z,612
2019-02-18T07:04:38.465Z,624
2019-02-18T07:05:39.048Z,644
2019-02-18T07:06:37.701Z,660
2019-02-18T07:07:36.592Z,676
2019-02-18T07:08:35.129Z,688
2019-02-18T07:09:33.712Z,704
2019-02-18T07:10:32.237Z,724
2019-02-18T07:11:30.788Z,740
2019-02-18T07:12:29.473Z,756
2019-02-18T07:13:28.137Z,768
2019-02-18T07:14:26.686Z,788
2019-02-18T07:15:25.368Z,808
2019-02-18T07:16:24.196Z,824
2019-02-18T07:17:22.736Z,828
2019-02-18T07:18:21.359Z,836
2019-02-18T07:19:19.839Z,852
2019-02-18T07:20:18.363Z,864
2019-02-18T07:21:16.920Z,868
2019-02-18T07:22:15.469Z,876
2019-02-18T07:23:14.013Z,864
2019-02-18T07:24:12.597Z,872
2019-02-18T07:25:11.165Z,880
2019-02-18T07:26:09.748Z,892
2019-02-18T07:27:08.509Z,896
2019-02-18T07:28:07.264Z,924
2019-02-18T07:29:06.137Z,956
2019-02-18T07:30:04.827Z,928
2019-02-18T07:31:03.462Z,932
2019-02-18T07:32:02.075Z,928
2019-02-18T07:33:00.614Z,928
2019-02-18T07:34:00.009Z,904
2019-02-18T07:34:58.596Z,932
2019-02-18T07:35:57.190Z,944
2019-02-18T07:36:55.737Z,952
2019-02-18T07:37:54.431Z,960
2019-02-18T07:38:53.002Z,964
2019-02-18T07:40:00.753Z,980
2019-02-18T07:40:50.146Z,980
2019-02-18T07:41:48.719Z,980
2019-02-18T07:42:47.264Z,988
2019-02-18T07:43:45.796Z,996
2019-02-18T07:44:44.351Z,996
2019-02-18T07:45:42.883Z,1004
2019-02-18T07:46:41.424Z,1004
2019-02-18T07:47:40.043Z,1012
2019-02-18T07:48:38.847Z,1016
2019-02-18T07:49:37.415Z,1020
2019-02-18T07:50:36.286Z,1020
2019-02-18T07:51:34.932Z,1024
2019-02-18T07:52:33.492Z,1028
2019-02-18T07:53:32.049Z,1032
2019-02-18T07:54:30.837Z,1036
2019-02-18T07:55:29.355Z,1040
2019-02-18T07:56:28.031Z,1044
2019-02-18T07:57:26.669Z,1048
2019-02-18T07:58:25.205Z,1052
2019-02-18T07:59:23.869Z,1056
2019-02-18T08:00:22.526Z,1056
2019-02-18T08:01:21.075Z,1064
2019-02-18T08:02:19.590Z,1048
2019-02-18T08:03:18.150Z,1048
2019-02-18T08:04:16.731Z,1064
2019-02-18T08:05:15.282Z,1068
2019-02-18T08:06:13.834Z,1068
2019-02-18T08:07:12.578Z,1072
2019-02-18T08:08:11.167Z,1080
2019-02-18T08:09:09.795Z,1068
2019-02-18T08:10:11.952Z,1064
2019-02-18T08:11:06.983Z,1080
2019-02-18T08:12:05.549Z,1080
2019-02-18T08:13:04.071Z,1084
2019-02-18T08:14:02.666Z,1088
2019-02-18T08:15:01.266Z,1080
2019-02-18T08:15:59.991Z,1108
2019-02-18T08:16:58.655Z,1096
2019-02-18T08:17:57.182Z,1100
2019-02-18T08:18:55.723Z,1096
2019-02-18T08:21:11.591Z,1108
2019-02-18T08:22:10.238Z,1132
2019-02-18T08:23:08.832Z,1136
2019-02-18T08:24:07.373Z,1136
2019-02-18T08:25:05.978Z,1124
2019-02-18T08:26:04.481Z,1120
2019-02-18T08:27:03.064Z,1124
2019-02-18T08:28:01.631Z,1128
2019-02-18T08:29:00.537Z,1128
2019-02-18T08:29:59.033Z,1136
2019-02-18T08:30:57.552Z,1136
2019-02-18T08:31:56.208Z,1140
2019-02-18T08:32:54.905Z,1140
2019-02-18T08:33:53.451Z,1144
2019-02-18T08:34:52.045Z,1148
2019-02-18T08:35:50.594Z,1148
2019-02-18T08:36:49.180Z,1152
2019-02-18T08:37:47.691Z,1156
2019-02-18T08:38:46.267Z,1156
2019-02-18T08:39:44.813Z,1160
2019-02-18T08:40:43.388Z,1164
2019-02-18T08:41:42.004Z,1164
2019-02-18T08:42:40.720Z,1164
2019-02-18T08:43:39.285Z,1168
2019-02-18T08:44:38.022Z,1164
2019-02-18T08:45:36.740Z,1168
2019-02-18T08:46:35.277Z,1172
2019-02-18T08:47:33.911Z,1176
2019-02-18T08:48:32.765Z,1176
2019-02-18T08:49:31.312Z,1180
2019-02-18T08:50:29.938Z,1180
2019-02-18T08:51:28.751Z,1184
2019-02-18T08:52:27.322Z,1184
2019-02-18T08:53:26.057Z,1188
2019-02-18T08:54:24.765Z,1192
2019-02-18T08:55:23.361Z,1196
2019-02-18T08:56:21.906Z,1200
2019-02-18T08:57:20.690Z,1200
2019-02-18T08:58:19.318Z,1200
2019-02-18T08:59:17.893Z,1204
2019-02-18T09:00:16.499Z,1208
2019-02-18T09:01:15.020Z,1216
2019-02-18T09:02:13.567Z,1216
2019-02-18T09:03:12.113Z,1196
2019-02-18T09:04:20.232Z,1216
2019-02-18T09:05:18.971Z,1224
2019-02-18T09:06:17.343Z,1216
2019-02-18T09:07:15.887Z,1220
2019-02-18T09:08:14.490Z,1224
2019-02-18T09:09:13.007Z,1228
2019-02-18T09:10:11.566Z,1232
2019-02-18T09:11:10.444Z,1232
2019-02-18T09:12:09.013Z,1244
2019-02-18T09:13:07.568Z,1244
2019-02-18T09:14:06.353Z,1248
2019-02-18T09:15:04.915Z,1252
2019-02-18T09:16:03.444Z,1252
2019-02-18T09:17:02.009Z,1256
2019-02-18T09:18:00.648Z,1264
2019-02-18T09:18:59.265Z,1260
2019-02-18T09:19:57.822Z,1264
2019-02-18T09:20:56.599Z,1268
2019-02-18T09:21:55.176Z,1276
2019-02-18T09:22:53.773Z,1276
2019-02-18T09:23:52.438Z,1284
2019-02-18T09:24:51.818Z,1284
2019-02-18T09:25:50.568Z,1292
2019-02-18T09:26:49.113Z,1300
2019-02-18T09:27:47.686Z,1304
2019-02-18T09:28:46.256Z,1312
2019-02-18T09:29:44.846Z,1316
2019-02-18T09:30:43.413Z,1324
2019-02-18T09:31:42.840Z,1332
2019-02-18T09:32:40.752Z,1336
2019-02-18T09:33:39.296Z,1344
2019-02-18T09:34:38.101Z,1348
2019-02-18T09:35:36.782Z,1348
2019-02-18T09:36:35.320Z,1368
2019-02-18T09:37:33.972Z,1376
2019-02-18T09:38:32.579Z,1376
2019-02-18T09:39:31.661Z,1376
2019-02-18T09:40:29.657Z,1388
2019-02-18T09:41:28.613Z,1384
2019-02-18T09:42:27.260Z,1392
2019-02-18T09:43:25.956Z,1400
2019-02-18T09:44:24.538Z,1408
2019-02-18T09:45:23.104Z,1416
2019-02-18T09:46:21.939Z,1416
2019-02-18T09:47:20.471Z,1428
2019-02-18T09:48:18.999Z,1432
2019-02-18T09:49:17.602Z,1448
2019-02-18T09:50:16.372Z,1448
2019-02-18T09:51:14.886Z,1448
2019-02-18T09:52:13.412Z,1456
2019-02-18T09:53:12.023Z,1464
2019-02-18T09:54:11.305Z,1476
2019-02-18T09:55:09.237Z,1472
2019-02-18T09:56:07.847Z,1480
2019-02-18T09:57:06.622Z,1484
2019-02-18T09:58:05.168Z,1492
2019-02-18T09:59:03.692Z,1496
2019-02-18T10:00:02.324Z,1500
2019-02-18T10:01:01.032Z,1504
2019-02-18T10:01:59.548Z,1508
2019-02-18T10:02:58.218Z,1516
2019-02-18T10:03:56.778Z,1516
2019-02-18T10:04:55.343Z,1524
2019-02-18T10:05:53.912Z,1524
2019-02-18T10:06:54.863Z,1524
2019-02-18T10:07:51.109Z,1544
2019-02-18T10:08:49.663Z,1536
2019-02-18T10:09:48.363Z,1548
2019-02-18T10:10:55.272Z,1544
2019-02-18T10:11:45.473Z,1552
2019-02-18T10:12:44.332Z,1552
2019-02-18T10:13:42.856Z,1560
2019-02-18T10:14:41.379Z,1560
2019-02-18T10:15:39.988Z,1564
2019-02-18T10:16:38.526Z,1572
2019-02-18T10:17:37.072Z,1568
2019-02-18T10:18:35.659Z,1576
2019-02-18T10:19:34.648Z,1580
2019-02-18T10:20:33.284Z,1576
2019-02-18T10:21:31.978Z,1592
2019-02-18T10:22:30.577Z,1584
2019-02-18T10:23:29.133Z,1592
2019-02-18T10:24:27.816Z,1596
2019-02-18T10:25:26.719Z,1600
2019-02-18T10:26:25.320Z,1600
2019-02-18T10:29:32.820Z,1608
2019-02-18T10:30:31.430Z,1608
2019-02-18T10:31:29.961Z,1604
2019-02-18T10:32:28.523Z,1612
2019-02-18T10:33:27.146Z,1620
2019-02-18T10:34:25.739Z,1616
2019-02-18T10:35:26.406Z,1620
2019-02-18T10:36:23.086Z,1616
2019-02-18T10:37:21.614Z,1612
2019-02-18T10:38:20.445Z,1624
2019-02-18T10:39:19.014Z,1628
2019-02-18T10:40:17.541Z,1628
2019-02-18T10:41:16.094Z,1628
2019-02-18T10:42:14.608Z,1632
2019-02-18T10:43:13.155Z,1632
2019-02-18T10:44:11.750Z,1632
2019-02-18T10:45:10.410Z,1636
2019-02-18T10:46:09.221Z,1640
2019-02-18T10:47:07.748Z,1636
2019-02-18T10:48:06.483Z,1640
2019-02-18T10:49:05.049Z,1644
2019-02-18T10:50:03.622Z,1644
2019-02-18T10:51:02.186Z,1648
2019-02-18T10:52:00.722Z,1644
2019-02-18T10:52:59.336Z,1652
2019-02-18T10:53:57.873Z,1648
2019-02-18T10:54:56.505Z,1648
2019-02-18T10:55:55.207Z,1652
2019-02-18T10:56:53.847Z,1652
2019-02-18T10:57:52.511Z,1652
2019-02-18T11:00:50.835Z,1656
2019-02-18T11:01:49.380Z,1652
2019-02-18T11:02:48.020Z,1644
2019-02-18T11:05:03.844Z,1668
2019-02-18T11:06:02.416Z,1664
2019-02-18T11:07:01.026Z,1636
2019-02-18T11:07:59.602Z,1636
2019-02-18T11:08:58.248Z,1632
2019-02-18T11:09:56.868Z,1632
2019-02-18T11:10:55.428Z,1628
2019-02-18T11:11:54.205Z,1624
2019-02-18T11:12:53.505Z,1620
2019-02-18T11:13:52.169Z,1616
2019-02-18T11:14:50.932Z,1608
2019-02-18T11:15:49.533Z,1604
2019-02-18T11:16:48.108Z,1600
2019-02-18T11:17:46.837Z,1596
2019-02-18T11:18:45.431Z,1588
2019-02-18T11:19:44.016Z,1588
2019-02-18T11:20:42.745Z,1592
2019-02-18T11:21:41.336Z,1584
2019-02-18T11:22:39.900Z,1576
2019-02-18T11:23:38.571Z,1568
2019-02-18T11:24:37.189Z,1564
2019-02-18T11:25:35.734Z,1560
2019-02-18T11:26:34.294Z,1556
2019-02-18T11:27:32.860Z,1548
2019-02-18T11:28:31.373Z,1540
2019-02-18T11:29:29.945Z,1532
2019-02-18T11:30:28.855Z,1532
2019-02-18T11:31:27.414Z,1520
2019-02-18T11:32:26.018Z,1516
2019-02-18T11:33:24.688Z,1508
2019-02-18T11:34:23.232Z,1524
2019-02-18T11:35:21.789Z,1504
2019-02-18T11:36:20.452Z,1500
2019-02-18T11:37:19.004Z,1500
2019-02-18T11:38:17.547Z,1500
2019-02-18T11:39:16.111Z,1496
2019-02-18T11:40:14.940Z,1484
2019-02-18T11:41:13.666Z,1488
2019-02-18T11:42:12.379Z,1488
2019-02-18T11:43:10.926Z,1488
2019-02-18T11:44:09.483Z,1488
2019-02-18T11:45:08.043Z,1488
2019-02-18T11:46:06.602Z,1492
2019-02-18T11:47:05.178Z,1492
2019-02-18T11:48:04.681Z,1476
2019-02-18T11:49:03.245Z,1480
2019-02-18T11:50:01.764Z,1476
2019-02-18T11:51:00.576Z,1464
2019-02-18T11:52:00.091Z,1472
2019-02-18T11:52:57.681Z,1472
2019-02-18T11:53:56.327Z,1456
2019-02-18T11:54:54.943Z,1456
2019-02-18T11:55:53.482Z,1448
2019-02-18T11:56:52.200Z,1444
2019-02-18T11:57:50.776Z,1440
2019-02-18T11:58:49.373Z,1432
2019-02-18T11:59:47.959Z,1428
2019-02-18T12:00:46.799Z,1420
2019-02-18T12:01:45.360Z,1420
2019-02-18T12:02:44.006Z,1420
2019-02-18T12:03:42.801Z,1416
2019-02-18T12:04:41.373Z,1416
2019-02-18T12:05:39.960Z,1416
2019-02-18T12:06:38.508Z,1412
2019-02-18T12:07:37.162Z,1412
2019-02-18T12:08:35.732Z,1408
2019-02-18T12:09:34.319Z,1404
2019-02-18T12:10:32.987Z,1404
2019-02-18T12:11:37.632Z,1404
2019-02-18T12:12:30.192Z,1396
2019-02-18T12:13:28.834Z,1392
2019-02-18T12:14:27.635Z,1400
2019-02-18T12:15:26.034Z,1384
2019-02-18T12:16:24.610Z,1380
2019-02-18T12:17:23.135Z,1376
2019-02-18T12:18:21.685Z,1372
2019-02-18T12:19:20.235Z,1368
2019-02-18T12:20:18.932Z,1360
2019-02-18T12:21:17.505Z,1356
2019-02-18T12:22:16.041Z,1348
2019-02-18T12:23:14.652Z,1368
2019-02-18T12:24:13.240Z,1352
2019-02-18T12:25:11.779Z,1352
2019-02-18T12:26:10.410Z,1352
2019-02-18T12:27:09.025Z,1340
2019-02-18T12:28:07.584Z,1344
2019-02-18T12:29:06.218Z,1336
2019-02-18T12:30:04.784Z,1340
2019-02-18T12:31:03.385Z,1332
2019-02-18T12:32:02.015Z,1332
2019-02-18T12:33:00.740Z,1332
2019-02-18T12:33:59.306Z,1332
2019-02-18T12:34:57.984Z,1324
2019-02-18T12:35:56.634Z,1328
2019-02-18T12:36:55.193Z,1328
2019-02-18T12:37:55.482Z,1324
2019-02-18T12:38:52.370Z,1328
2019-02-18T12:39:51.116Z,1324
2019-02-18T12:40:49.717Z,1332
2019-02-18T12:41:49.154Z,1324
2019-02-18T12:42:47.263Z,1332
2019-02-18T12:43:45.822Z,1336
2019-02-18T12:44:44.437Z,1336
2019-02-18T12:45:43.090Z,1336
2019-02-18T12:46:41.703Z,1336
2019-02-18T12:47:40.965Z,1336
2019-02-18T12:48:39.475Z,1340
2019-02-18T12:49:38.038Z,1336
2019-02-18T12:50:36.569Z,1336
2019-02-18T12:51:35.132Z,1348
2019-02-18T12:52:33.686Z,1352
2019-02-18T12:53:32.314Z,1348
2019-02-18T12:54:31.045Z,1340
2019-02-18T12:55:29.753Z,1332
2019-02-18T12:56:28.288Z,1336
2019-02-18T12:57:26.958Z,1336
2019-02-18T12:58:25.599Z,1340
2019-02-18T12:59:24.167Z,1340
2019-02-18T13:00:22.736Z,1340
2019-02-18T13:01:21.295Z,1340
2019-02-18T13:02:19.832Z,1344
2019-02-18T13:03:18.462Z,1344
2019-02-18T13:04:17.110Z,1344
2019-02-18T13:05:15.691Z,1344
2019-02-18T13:06:14.496Z,1340
2019-02-18T13:07:13.192Z,1348
2019-02-18T13:08:11.717Z,1344
2019-02-18T13:09:10.411Z,1348
2019-02-18T13:10:08.970Z,1348
2019-02-18T13:11:07.528Z,1348
2019-02-18T13:12:06.126Z,1344
2019-02-18T13:13:04.972Z,1348
2019-02-18T13:14:03.500Z,1348
2019-02-18T13:15:02.114Z,1348
2019-02-18T13:16:00.803Z,1348
2019-02-18T13:16:59.470Z,1348
2019-02-18T13:17:57.992Z,1352
2019-02-18T13:18:56.676Z,1348
2019-02-18T13:19:55.218Z,1348
2019-02-18T13:20:53.744Z,1352
2019-02-18T13:21:52.647Z,1352
2019-02-18T13:22:51.337Z,1348
2019-02-18T13:23:49.975Z,1348
2019-02-18T13:24:49.094Z,1348
2019-02-18T13:25:47.833Z,1348
2019-02-18T13:26:47.210Z,1348
2019-02-18T13:27:45.754Z,1348
2019-02-18T13:28:44.563Z,1348
2019-02-18T13:29:43.138Z,1344
2019-02-18T13:30:41.651Z,1344
2019-02-18T13:31:40.264Z,1344
2019-02-18T13:32:38.857Z,1344
2019-02-18T13:33:37.432Z,1348
2019-02-18T13:34:36.254Z,1348
2019-02-18T13:35:34.878Z,1348
2019-02-18T13:36:33.431Z,1348
2019-02-18T13:37:31.948Z,1348
2019-02-18T13:38:30.649Z,1348
2019-02-18T13:39:29.226Z,1348
2019-02-18T13:40:27.773Z,1348
2019-02-18T13:41:26.409Z,1344
2019-02-18T13:42:24.950Z,1348
2019-02-18T13:43:23.523Z,1344
2019-02-18T13:44:22.103Z,1348
2019-02-18T13:45:20.909Z,1348
2019-02-18T13:46:19.429Z,1344
2019-02-18T13:47:18.070Z,1344
2019-02-18T13:48:16.938Z,1344
2019-02-18T13:49:15.471Z,1344
2019-02-18T13:50:14.075Z,1344